sensor_id;sensor_type;location;lat;lon;timestamp;pressure;altitude;pressure_sealevel;temperature;humidity
70248;BME280;57641;51.416;5.506;2023-03-03T00:00:14;102463.19;;;8.09;53.71
70248;BME280;57641;51.416;5.506;2023-03-03T00:02:39;102468.72;;;8.06;54.16
70248;BME280;57641;51.416;5.506;2023-03-03T00:05:05;102470.03;;;7.99;54.63
70248;BME280;57641;51.416;5.506;2023-03-03T00:07:31;102465.59;;;7.99;54.40
70248;BME280;57641;51.416;5.506;2023-03-03T00:09:57;102459.53;;;7.97;54.42
70248;BME280;57641;51.416;5.506;2023-03-03T00:12:28;102475.25;;;8.00;54.22
70248;BME280;57641;51.416;5.506;2023-03-03T00:14:55;102465.88;;;7.95;54.29
70248;BME280;57641;51.416;5.506;2023-03-03T00:17:29;102469.47;;;7.94;54.05
70248;BME280;57641;51.416;5.506;2023-03-03T00:19:56;102474.91;;;7.92;54.24
70248;BME280;57641;51.416;5.506;2023-03-03T00:22:35;102467.41;;;7.85;54.29
70248;BME280;57641;51.416;5.506;2023-03-03T00:25:28;102479.09;;;7.82;54.09
70248;BME280;57641;51.416;5.506;2023-03-03T00:27:55;102486.97;;;7.70;54.34
70248;BME280;57641;51.416;5.506;2023-03-03T00:30:26;102481.72;;;7.68;54.99
70248;BME280;57641;51.416;5.506;2023-03-03T00:32:53;102480.69;;;7.56;55.59
70248;BME280;57641;51.416;5.506;2023-03-03T00:35:38;102486.38;;;7.64;54.97
70248;BME280;57641;51.416;5.506;2023-03-03T00:38:13;102490.28;;;7.59;55.40
70248;BME280;57641;51.416;5.506;2023-03-03T00:40:41;102485.53;;;7.50;54.55
70248;BME280;57641;51.416;5.506;2023-03-03T00:43:19;102487.97;;;7.39;55.73
70248;BME280;57641;51.416;5.506;2023-03-03T00:45:54;102489.84;;;7.37;56.21
70248;BME280;57641;51.416;5.506;2023-03-03T00:53:35;102492.53;;;7.51;56.34
70248;BME280;57641;51.416;5.506;2023-03-03T00:56:01;102500.69;;;7.48;56.22
70248;BME280;57641;51.416;5.506;2023-03-03T00:58:26;102502.56;;;7.46;56.62
70248;BME280;57641;51.416;5.506;2023-03-03T01:00:53;102500.38;;;7.38;56.58
70248;BME280;57641;51.416;5.506;2023-03-03T01:03:23;102503.53;;;7.45;56.56
70248;BME280;57641;51.416;5.506;2023-03-03T01:05:50;102502.47;;;7.47;56.45
70248;BME280;57641;51.416;5.506;2023-03-03T01:08:16;102510.00;;;7.55;55.82
70248;BME280;57641;51.416;5.506;2023-03-03T01:10:48;102512.94;;;7.50;56.32
70248;BME280;57641;51.416;5.506;2023-03-03T01:13:25;102508.34;;;7.52;56.33
70248;BME280;57641;51.416;5.506;2023-03-03T01:15:52;102508.28;;;7.54;56.33
70248;BME280;57641;51.416;5.506;2023-03-03T01:18:18;102504.56;;;7.56;55.71
70248;BME280;57641;51.416;5.506;2023-03-03T01:20:44;102505.53;;;7.55;56.04
70248;BME280;57641;51.416;5.506;2023-03-03T01:23:09;102511.94;;;7.51;55.94
70248;BME280;57641;51.416;5.506;2023-03-03T01:25:35;102507.63;;;7.50;55.79
70248;BME280;57641;51.416;5.506;2023-03-03T01:28:01;102511.56;;;7.43;56.10
70248;BME280;57641;51.416;5.506;2023-03-03T01:30:27;102516.03;;;7.43;55.64
70248;BME280;57641;51.416;5.506;2023-03-03T01:32:53;102509.78;;;7.44;55.73
70248;BME280;57641;51.416;5.506;2023-03-03T01:35:19;102513.38;;;7.43;55.58
70248;BME280;57641;51.416;5.506;2023-03-03T01:37:45;102516.22;;;7.40;54.87
70248;BME280;57641;51.416;5.506;2023-03-03T01:40:14;102520.41;;;7.44;54.58
70248;BME280;57641;51.416;5.506;2023-03-03T01:42:40;102517.06;;;7.40;54.80
70248;BME280;57641;51.416;5.506;2023-03-03T01:45:20;102512.22;;;7.33;55.12
70248;BME280;57641;51.416;5.506;2023-03-03T01:48:00;102516.59;;;7.34;55.58
70248;BME280;57641;51.416;5.506;2023-03-03T01:50:45;102515.91;;;7.30;55.68
70248;BME280;57641;51.416;5.506;2023-03-03T01:53:19;102516.59;;;7.34;55.47
70248;BME280;57641;51.416;5.506;2023-03-03T01:55:47;102524.44;;;7.35;55.37
70248;BME280;57641;51.416;5.506;2023-03-03T01:58:21;102530.00;;;7.31;55.38
70248;BME280;57641;51.416;5.506;2023-03-03T02:00:56;102523.59;;;7.35;54.69
70248;BME280;57641;51.416;5.506;2023-03-03T02:03:29;102522.91;;;7.31;55.19
70248;BME280;57641;51.416;5.506;2023-03-03T02:05:58;102513.34;;;7.29;55.34
70248;BME280;57641;51.416;5.506;2023-03-03T02:08:30;102516.88;;;7.29;54.86
70248;BME280;57641;51.416;5.506;2023-03-03T02:11:00;102510.22;;;7.36;54.49
70248;BME280;57641;51.416;5.506;2023-03-03T02:13:27;102503.69;;;7.42;53.79
70248;BME280;57641;51.416;5.506;2023-03-03T02:15:53;102507.03;;;7.45;53.81
70248;BME280;57641;51.416;5.506;2023-03-03T02:18:29;102513.19;;;7.46;53.54
70248;BME280;57641;51.416;5.506;2023-03-03T02:23:58;102515.72;;;7.19;54.35
70248;BME280;57641;51.416;5.506;2023-03-03T02:26:26;102511.28;;;7.04;55.10
70248;BME280;57641;51.416;5.506;2023-03-03T02:28:52;102521.22;;;7.00;55.35
70248;BME280;57641;51.416;5.506;2023-03-03T02:31:20;102530.22;;;6.98;55.33
70248;BME280;57641;51.416;5.506;2023-03-03T02:33:48;102527.38;;;7.01;54.46
70248;BME280;57641;51.416;5.506;2023-03-03T02:36:23;102526.00;;;6.94;54.62
70248;BME280;57641;51.416;5.506;2023-03-03T02:44:16;102522.19;;;6.84;55.92
70248;BME280;57641;51.416;5.506;2023-03-03T02:46:44;102523.06;;;6.84;55.77
70248;BME280;57641;51.416;5.506;2023-03-03T02:49:12;102516.03;;;6.83;55.86
70248;BME280;57641;51.416;5.506;2023-03-03T02:51:39;102524.50;;;6.90;55.51
70248;BME280;57641;51.416;5.506;2023-03-03T02:54:06;102520.13;;;6.89;55.64
70248;BME280;57641;51.416;5.506;2023-03-03T02:56:33;102523.63;;;6.89;55.88
70248;BME280;57641;51.416;5.506;2023-03-03T02:58:59;102515.03;;;6.86;55.45
70248;BME280;57641;51.416;5.506;2023-03-03T03:01:24;102517.16;;;6.79;55.53
70248;BME280;57641;51.416;5.506;2023-03-03T03:03:50;102525.69;;;6.84;56.10
70248;BME280;57641;51.416;5.506;2023-03-03T03:06:16;102522.97;;;6.86;55.85
70248;BME280;57641;51.416;5.506;2023-03-03T03:08:42;102527.16;;;6.74;55.97
70248;BME280;57641;51.416;5.506;2023-03-03T03:11:08;102525.88;;;6.81;56.34
70248;BME280;57641;51.416;5.506;2023-03-03T03:13:34;102523.06;;;6.84;55.95
70248;BME280;57641;51.416;5.506;2023-03-03T03:16:00;102531.78;;;6.86;56.29
70248;BME280;57641;51.416;5.506;2023-03-03T03:18:26;102530.72;;;6.89;56.38
70248;BME280;57641;51.416;5.506;2023-03-03T03:20:52;102530.31;;;6.96;55.57
70248;BME280;57641;51.416;5.506;2023-03-03T03:23:18;102528.78;;;6.92;55.67
70248;BME280;57641;51.416;5.506;2023-03-03T03:25:46;102535.88;;;6.92;55.59
70248;BME280;57641;51.416;5.506;2023-03-03T03:28:16;102534.44;;;6.86;55.77
70248;BME280;57641;51.416;5.506;2023-03-03T03:30:43;102545.13;;;6.85;55.72
70248;BME280;57641;51.416;5.506;2023-03-03T03:33:10;102551.34;;;6.84;55.56
70248;BME280;57641;51.416;5.506;2023-03-03T03:35:36;102543.47;;;6.82;55.28
70248;BME280;57641;51.416;5.506;2023-03-03T03:38:02;102550.59;;;6.82;55.25
70248;BME280;57641;51.416;5.506;2023-03-03T03:40:28;102548.03;;;6.80;56.39
70248;BME280;57641;51.416;5.506;2023-03-03T03:42:54;102548.34;;;6.90;55.57
70248;BME280;57641;51.416;5.506;2023-03-03T03:45:20;102548.34;;;6.90;54.92
70248;BME280;57641;51.416;5.506;2023-03-03T03:47:46;102543.31;;;6.85;55.67
70248;BME280;57641;51.416;5.506;2023-03-03T03:50:12;102546.91;;;6.84;55.76
70248;BME280;57641;51.416;5.506;2023-03-03T03:52:38;102544.50;;;6.95;55.12
70248;BME280;57641;51.416;5.506;2023-03-03T03:55:04;102549.41;;;6.87;55.68
70248;BME280;57641;51.416;5.506;2023-03-03T03:57:30;102544.19;;;6.86;55.96
70248;BME280;57641;51.416;5.506;2023-03-03T03:59:56;102551.53;;;6.81;56.29
70248;BME280;57641;51.416;5.506;2023-03-03T04:02:22;102544.09;;;6.87;55.70
70248;BME280;57641;51.416;5.506;2023-03-03T04:04:48;102558.38;;;6.85;55.70
70248;BME280;57641;51.416;5.506;2023-03-03T04:07:14;102556.84;;;6.81;55.60
70248;BME280;57641;51.416;5.506;2023-03-03T04:09:39;102556.97;;;6.93;54.93
70248;BME280;57641;51.416;5.506;2023-03-03T04:12:05;102556.66;;;6.84;55.62
70248;BME280;57641;51.416;5.506;2023-03-03T04:14:32;102550.75;;;6.78;56.09
70248;BME280;57641;51.416;5.506;2023-03-03T04:16:57;102553.25;;;6.82;55.78
70248;BME280;57641;51.416;5.506;2023-03-03T04:19:22;102554.34;;;6.77;55.68
70248;BME280;57641;51.416;5.506;2023-03-03T04:21:48;102554.88;;;6.84;55.91
70248;BME280;57641;51.416;5.506;2023-03-03T04:24:14;102555.78;;;6.83;56.11
70248;BME280;57641;51.416;5.506;2023-03-03T04:26:39;102554.59;;;6.89;56.13
70248;BME280;57641;51.416;5.506;2023-03-03T04:29:05;102558.44;;;6.99;55.60
70248;BME280;57641;51.416;5.506;2023-03-03T04:31:31;102564.00;;;6.94;54.99
70248;BME280;57641;51.416;5.506;2023-03-03T04:33:57;102562.38;;;6.92;55.45
70248;BME280;57641;51.416;5.506;2023-03-03T04:36:23;102549.47;;;6.86;55.35
70248;BME280;57641;51.416;5.506;2023-03-03T04:38:49;102567.25;;;6.84;55.97
70248;BME280;57641;51.416;5.506;2023-03-03T04:41:14;102568.38;;;6.79;55.96
70248;BME280;57641;51.416;5.506;2023-03-03T04:43:40;102556.03;;;6.94;55.44
70248;BME280;57641;51.416;5.506;2023-03-03T04:46:06;102555.38;;;6.91;56.15
70248;BME280;57641;51.416;5.506;2023-03-03T04:48:32;102557.75;;;6.95;55.68
70248;BME280;57641;51.416;5.506;2023-03-03T04:50:57;102558.16;;;7.03;54.58
70248;BME280;57641;51.416;5.506;2023-03-03T04:53:23;102563.66;;;7.00;55.04
70248;BME280;57641;51.416;5.506;2023-03-03T04:55:50;102572.72;;;6.96;55.21
70248;BME280;57641;51.416;5.506;2023-03-03T04:58:16;102564.00;;;6.94;55.33
70248;BME280;57641;51.416;5.506;2023-03-03T05:00:45;102582.63;;;6.93;55.68
70248;BME280;57641;51.416;5.506;2023-03-03T05:03:12;102569.38;;;6.93;55.48
70248;BME280;57641;51.416;5.506;2023-03-03T05:05:39;102571.22;;;6.92;55.50
70248;BME280;57641;51.416;5.506;2023-03-03T05:08:05;102575.53;;;6.93;55.49
70248;BME280;57641;51.416;5.506;2023-03-03T05:10:31;102566.63;;;7.10;53.50
70248;BME280;57641;51.416;5.506;2023-03-03T05:12:56;102569.22;;;6.96;54.67
70248;BME280;57641;51.416;5.506;2023-03-03T05:15:22;102583.69;;;6.90;55.33
70248;BME280;57641;51.416;5.506;2023-03-03T05:17:47;102573.25;;;6.87;55.52
70248;BME280;57641;51.416;5.506;2023-03-03T05:20:13;102577.78;;;6.85;55.37
70248;BME280;57641;51.416;5.506;2023-03-03T05:22:39;102576.94;;;6.85;55.89
70248;BME280;57641;51.416;5.506;2023-03-03T05:25:05;102575.13;;;6.85;55.69
70248;BME280;57641;51.416;5.506;2023-03-03T05:27:31;102581.88;;;6.91;55.29
70248;BME280;57641;51.416;5.506;2023-03-03T05:29:57;102578.38;;;6.90;55.88
70248;BME280;57641;51.416;5.506;2023-03-03T05:32:25;102582.56;;;6.94;55.64
70248;BME280;57641;51.416;5.506;2023-03-03T05:34:51;102586.94;;;6.95;55.52
70248;BME280;57641;51.416;5.506;2023-03-03T05:37:17;102583.00;;;7.02;54.87
70248;BME280;57641;51.416;5.506;2023-03-03T05:39:42;102584.94;;;6.99;54.47
70248;BME280;57641;51.416;5.506;2023-03-03T05:42:11;102583.59;;;6.92;55.08
70248;BME280;57641;51.416;5.506;2023-03-03T05:44:38;102581.97;;;6.89;55.18
70248;BME280;57641;51.416;5.506;2023-03-03T05:47:03;102583.59;;;6.92;55.59
70248;BME280;57641;51.416;5.506;2023-03-03T05:49:28;102587.94;;;6.93;55.72
70248;BME280;57641;51.416;5.506;2023-03-03T05:51:54;102583.34;;;6.96;55.21
70248;BME280;57641;51.416;5.506;2023-03-03T05:54:19;102585.91;;;6.98;55.15
70248;BME280;57641;51.416;5.506;2023-03-03T05:56:45;102585.13;;;6.96;55.35
70248;BME280;57641;51.416;5.506;2023-03-03T05:59:10;102586.72;;;6.98;55.30
70248;BME280;57641;51.416;5.506;2023-03-03T06:01:36;102593.00;;;6.97;55.07
70248;BME280;57641;51.416;5.506;2023-03-03T06:04:01;102596.25;;;7.02;55.20
70248;BME280;57641;51.416;5.506;2023-03-03T06:06:27;102597.50;;;7.11;54.73
70248;BME280;57641;51.416;5.506;2023-03-03T06:08:52;102598.78;;;7.04;54.45
70248;BME280;57641;51.416;5.506;2023-03-03T06:11:18;102606.50;;;7.08;54.75
70248;BME280;57641;51.416;5.506;2023-03-03T06:13:44;102595.97;;;7.07;54.64
70248;BME280;57641;51.416;5.506;2023-03-03T06:16:10;102601.03;;;7.11;54.86
70248;BME280;57641;51.416;5.506;2023-03-03T06:18:35;102606.31;;;7.11;54.64
70248;BME280;57641;51.416;5.506;2023-03-03T06:21:01;102607.44;;;7.07;55.18
70248;BME280;57641;51.416;5.506;2023-03-03T06:23:26;102609.63;;;7.15;55.06
70248;BME280;57641;51.416;5.506;2023-03-03T06:25:52;102608.91;;;7.13;55.05
70248;BME280;57641;51.416;5.506;2023-03-03T06:28:18;102610.00;;;7.09;54.96
70248;BME280;57641;51.416;5.506;2023-03-03T06:30:43;102612.63;;;7.09;55.29
70248;BME280;57641;51.416;5.506;2023-03-03T06:33:09;102624.88;;;7.11;55.31
70248;BME280;57641;51.416;5.506;2023-03-03T06:35:35;102620.59;;;7.09;55.44
70248;BME280;57641;51.416;5.506;2023-03-03T06:38:03;102620.53;;;7.10;55.41
70248;BME280;57641;51.416;5.506;2023-03-03T06:40:29;102625.75;;;7.12;55.40
70248;BME280;57641;51.416;5.506;2023-03-03T06:42:54;102632.66;;;7.14;55.62
70248;BME280;57641;51.416;5.506;2023-03-03T06:45:20;102630.44;;;7.22;55.10
70248;BME280;57641;51.416;5.506;2023-03-03T06:47:45;102634.88;;;7.22;54.90
70248;BME280;57641;51.416;5.506;2023-03-03T06:50:11;102641.31;;;7.18;55.14
70248;BME280;57641;51.416;5.506;2023-03-03T06:52:37;102645.84;;;7.16;55.45
70248;BME280;57641;51.416;5.506;2023-03-03T06:55:10;102647.09;;;7.25;55.34
70248;BME280;57641;51.416;5.506;2023-03-03T06:57:37;102652.84;;;7.33;54.61
70248;BME280;57641;51.416;5.506;2023-03-03T07:00:16;102637.44;;;7.39;53.98
70248;BME280;57641;51.416;5.506;2023-03-03T07:02:44;102660.34;;;7.40;55.66
70248;BME280;57641;51.416;5.506;2023-03-03T07:05:14;102655.66;;;7.45;55.63
70248;BME280;57641;51.416;5.506;2023-03-03T07:07:40;102662.06;;;7.41;54.64
70248;BME280;57641;51.416;5.506;2023-03-03T07:10:22;102657.00;;;7.37;54.56
70248;BME280;57641;51.416;5.506;2023-03-03T07:12:49;102665.31;;;7.31;55.31
70248;BME280;57641;51.416;5.506;2023-03-03T07:15:33;102665.31;;;7.31;55.67
70248;BME280;57641;51.416;5.506;2023-03-03T07:17:58;102658.50;;;7.27;55.63
70248;BME280;57641;51.416;5.506;2023-03-03T07:20:32;102653.00;;;7.30;55.47
70248;BME280;57641;51.416;5.506;2023-03-03T07:23:00;102659.44;;;7.26;55.49
70248;BME280;57641;51.416;5.506;2023-03-03T07:25:32;102654.63;;;7.32;55.25
70248;BME280;57641;51.416;5.506;2023-03-03T07:28:29;102663.97;;;7.39;55.32
70248;BME280;57641;51.416;5.506;2023-03-03T07:30:57;102657.09;;;7.35;55.27
70248;BME280;57641;51.416;5.506;2023-03-03T07:33:30;102663.25;;;7.36;55.63
70248;BME280;57641;51.416;5.506;2023-03-03T07:35:58;102665.28;;;7.46;55.01
70248;BME280;57641;51.416;5.506;2023-03-03T07:38:36;102668.66;;;7.50;54.63
70248;BME280;57641;51.416;5.506;2023-03-03T07:41:23;102671.66;;;7.44;54.99
70248;BME280;57641;51.416;5.506;2023-03-03T07:43:52;102675.63;;;7.51;53.71
70248;BME280;57641;51.416;5.506;2023-03-03T07:46:44;102683.88;;;7.46;54.50
70248;BME280;57641;51.416;5.506;2023-03-03T07:49:37;102684.34;;;7.39;54.86
70248;BME280;57641;51.416;5.506;2023-03-03T07:52:29;102684.41;;;7.37;55.26
70248;BME280;57641;51.416;5.506;2023-03-03T07:55:01;102683.16;;;7.29;55.04
70248;BME280;57641;51.416;5.506;2023-03-03T07:57:35;102688.00;;;7.36;55.43
70248;BME280;57641;51.416;5.506;2023-03-03T08:03:01;102695.94;;;7.52;54.85
70248;BME280;57641;51.416;5.506;2023-03-03T08:10:49;102693.97;;;7.55;55.03
70248;BME280;57641;51.416;5.506;2023-03-03T08:15:44;102694.56;;;7.60;54.82
70248;BME280;57641;51.416;5.506;2023-03-03T08:18:34;102700.53;;;7.64;54.42
70248;BME280;57641;51.416;5.506;2023-03-03T08:21:23;102709.00;;;7.71;54.66
70248;BME280;57641;51.416;5.506;2023-03-03T08:23:50;102703.59;;;7.72;54.86
70248;BME280;57641;51.416;5.506;2023-03-03T08:26:18;102711.03;;;7.81;54.31
70248;BME280;57641;51.416;5.506;2023-03-03T08:28:45;102723.38;;;7.82;54.96
70248;BME280;57641;51.416;5.506;2023-03-03T08:31:11;102716.56;;;7.92;54.04
70248;BME280;57641;51.416;5.506;2023-03-03T08:33:37;102711.34;;;7.91;54.14
70248;BME280;57641;51.416;5.506;2023-03-03T08:36:04;102715.81;;;7.90;54.01
70248;BME280;57641;51.416;5.506;2023-03-03T08:38:30;102713.81;;;7.94;54.07
70248;BME280;57641;51.416;5.506;2023-03-03T08:40:55;102717.81;;;8.01;54.13
70248;BME280;57641;51.416;5.506;2023-03-03T08:43:21;102718.50;;;8.04;53.48
70248;BME280;57641;51.416;5.506;2023-03-03T08:45:52;102723.91;;;8.03;53.71
70248;BME280;57641;51.416;5.506;2023-03-03T08:48:19;102726.72;;;8.00;53.81
70248;BME280;57641;51.416;5.506;2023-03-03T08:50:46;102730.09;;;8.03;54.16
70248;BME280;57641;51.416;5.506;2023-03-03T08:53:13;102735.88;;;8.10;53.76
70248;BME280;57641;51.416;5.506;2023-03-03T08:55:39;102740.06;;;8.14;54.02
70248;BME280;57641;51.416;5.506;2023-03-03T08:58:06;102744.41;;;8.15;53.33
70248;BME280;57641;51.416;5.506;2023-03-03T09:00:32;102746.13;;;8.16;53.31
70248;BME280;57641;51.416;5.506;2023-03-03T09:02:58;102744.59;;;8.12;53.47
70248;BME280;57641;51.416;5.506;2023-03-03T09:05:24;102745.38;;;8.14;53.90
70248;BME280;57641;51.416;5.506;2023-03-03T09:07:51;102740.72;;;8.18;53.88
70248;BME280;57641;51.416;5.506;2023-03-03T09:10:23;102744.91;;;8.22;53.47
70248;BME280;57641;51.416;5.506;2023-03-03T09:12:54;102744.38;;;8.31;53.77
70248;BME280;57641;51.416;5.506;2023-03-03T09:15:26;102745.16;;;8.33;53.00
70248;BME280;57641;51.416;5.506;2023-03-03T09:18:13;102744.22;;;8.34;53.35
70248;BME280;57641;51.416;5.506;2023-03-03T09:20:41;102748.69;;;8.33;53.47
70248;BME280;57641;51.416;5.506;2023-03-03T09:23:34;102740.22;;;8.41;53.55
70248;BME280;57641;51.416;5.506;2023-03-03T09:29:25;102746.34;;;8.27;53.32
70248;BME280;57641;51.416;5.506;2023-03-03T09:32:00;102748.84;;;8.30;53.19
70248;BME280;57641;51.416;5.506;2023-03-03T09:39:40;102748.84;;;8.30;53.54
70248;BME280;57641;51.416;5.506;2023-03-03T09:48:07;102757.81;;;8.43;53.61
70248;BME280;57641;51.416;5.506;2023-03-03T09:51:17;102757.03;;;8.41;53.24
70248;BME280;57641;51.416;5.506;2023-03-03T09:56:38;102756.09;;;8.57;52.52
70248;BME280;57641;51.416;5.506;2023-03-03T09:59:35;102760.56;;;8.70;52.51
70248;BME280;57641;51.416;5.506;2023-03-03T10:02:34;102759.06;;;8.66;52.41
70248;BME280;57641;51.416;5.506;2023-03-03T10:05:13;102757.16;;;8.68;52.14
70248;BME280;57641;51.416;5.506;2023-03-03T10:07:48;102768.19;;;8.76;52.24
70248;BME280;57641;51.416;5.506;2023-03-03T10:15:35;102763.53;;;8.80;50.60
70248;BME280;57641;51.416;5.506;2023-03-03T10:18:18;102766.94;;;8.82;51.13
70248;BME280;57641;51.416;5.506;2023-03-03T10:21:08;102771.91;;;8.88;50.70
70248;BME280;57641;51.416;5.506;2023-03-03T10:29:05;102781.63;;;9.16;50.53
70248;BME280;57641;51.416;5.506;2023-03-03T10:34:29;102772.97;;;9.41;50.03
70248;BME280;57641;51.416;5.506;2023-03-03T10:39:57;102767.25;;;9.32;49.80
70248;BME280;57641;51.416;5.506;2023-03-03T10:53:57;102778.69;;;9.35;50.35
70248;BME280;57641;51.416;5.506;2023-03-03T10:56:54;102767.91;;;9.36;50.43
70248;BME280;57641;51.416;5.506;2023-03-03T10:59:47;102768.59;;;9.40;49.40
70248;BME280;57641;51.416;5.506;2023-03-03T11:02:47;102768.47;;;9.41;49.94
70248;BME280;57641;51.416;5.506;2023-03-03T11:16:17;102766.66;;;9.95;47.71
70248;BME280;57641;51.416;5.506;2023-03-03T11:22:07;102762.72;;;9.88;48.25
70248;BME280;57641;51.416;5.506;2023-03-03T11:33:09;102753.13;;;10.38;47.55
70248;BME280;57641;51.416;5.506;2023-03-03T11:35:54;102746.09;;;10.49;46.25
70248;BME280;57641;51.416;5.506;2023-03-03T11:43:45;102752.06;;;10.53;46.75
70248;BME280;57641;51.416;5.506;2023-03-03T11:46:21;102752.19;;;10.51;46.09
70248;BME280;57641;51.416;5.506;2023-03-03T11:54:24;102749.50;;;10.64;45.52
70248;BME280;57641;51.416;5.506;2023-03-03T11:56:58;102742.97;;;10.81;45.47
70248;BME280;57641;51.416;5.506;2023-03-03T12:02:04;102740.41;;;10.92;45.64
70248;BME280;57641;51.416;5.506;2023-03-03T12:04:45;102730.97;;;11.12;45.38
70248;BME280;57641;51.416;5.506;2023-03-03T12:07:46;102733.09;;;11.19;44.79
70248;BME280;57641;51.416;5.506;2023-03-03T12:10:19;102718.00;;;11.31;44.61
70248;BME280;57641;51.416;5.506;2023-03-03T12:12:57;102728.41;;;11.47;45.27
70248;BME280;57641;51.416;5.506;2023-03-03T12:15:29;102733.41;;;11.51;45.02
70248;BME280;57641;51.416;5.506;2023-03-03T12:25:41;102721.19;;;11.36;45.23
70248;BME280;57641;51.416;5.506;2023-03-03T12:28:20;102723.28;;;11.07;45.71
70248;BME280;57641;51.416;5.506;2023-03-03T12:33:41;102718.81;;;11.08;46.26
70248;BME280;57641;51.416;5.506;2023-03-03T12:36:37;102713.66;;;11.17;46.63
70248;BME280;57641;51.416;5.506;2023-03-03T12:45:30;102712.59;;;11.20;46.03
70248;BME280;57641;51.416;5.506;2023-03-03T12:53:44;102715.84;;;10.99;46.90
70248;BME280;57641;51.416;5.506;2023-03-03T13:09:53;102704.66;;;11.31;45.60
70248;BME280;57641;51.416;5.506;2023-03-03T13:26:09;102692.75;;;11.59;44.85
70248;BME280;57641;51.416;5.506;2023-03-03T13:28:40;102693.25;;;11.64;44.99
70248;BME280;57641;51.416;5.506;2023-03-03T13:31:12;102690.81;;;11.73;44.50
70248;BME280;57641;51.416;5.506;2023-03-03T13:33:43;102689.25;;;11.82;44.13
70248;BME280;57641;51.416;5.506;2023-03-03T13:36:19;102682.72;;;11.97;43.70
70248;BME280;57641;51.416;5.506;2023-03-03T13:38:52;102681.75;;;11.98;44.00
70248;BME280;57641;51.416;5.506;2023-03-03T13:44:17;102686.50;;;12.06;43.78
70248;BME280;57641;51.416;5.506;2023-03-03T13:47:16;102685.50;;;11.96;44.33
70248;BME280;57641;51.416;5.506;2023-03-03T13:52:27;102693.06;;;12.02;43.56
70248;BME280;57641;51.416;5.506;2023-03-03T13:55:16;102677.00;;;11.91;44.50
70248;BME280;57641;51.416;5.506;2023-03-03T13:58:00;102667.66;;;11.96;43.51
70248;BME280;57641;51.416;5.506;2023-03-03T14:00:43;102670.19;;;11.87;44.11
70248;BME280;57641;51.416;5.506;2023-03-03T14:06:21;102675.81;;;11.95;44.04
70248;BME280;57641;51.416;5.506;2023-03-03T14:12:03;102674.47;;;11.89;43.23
70248;BME280;57641;51.416;5.506;2023-03-03T14:14:56;102672.13;;;11.96;43.81
70248;BME280;57641;51.416;5.506;2023-03-03T14:17:38;102667.03;;;11.93;43.82
70248;BME280;57641;51.416;5.506;2023-03-03T14:20:17;102657.41;;;11.90;43.98
70248;BME280;57641;51.416;5.506;2023-03-03T14:22:57;102661.69;;;11.93;44.17
70248;BME280;57641;51.416;5.506;2023-03-03T14:25:23;102665.72;;;11.98;43.82
70248;BME280;57641;51.416;5.506;2023-03-03T14:30:43;102653.25;;;12.21;43.67
70248;BME280;57641;51.416;5.506;2023-03-03T14:35:40;102649.97;;;12.40;42.47
70248;BME280;57641;51.416;5.506;2023-03-03T14:40:39;102654.56;;;12.38;42.68
70248;BME280;57641;51.416;5.506;2023-03-03T14:43:33;102651.78;;;12.39;42.85
70248;BME280;57641;51.416;5.506;2023-03-03T14:49:14;102650.22;;;12.25;43.16
70248;BME280;57641;51.416;5.506;2023-03-03T14:51:45;102645.09;;;12.34;43.58
70248;BME280;57641;51.416;5.506;2023-03-03T14:54:36;102641.34;;;12.47;42.92
70248;BME280;57641;51.416;5.506;2023-03-03T14:57:12;102638.53;;;12.49;42.94
70248;BME280;57641;51.416;5.506;2023-03-03T14:59:57;102642.91;;;12.61;42.67
70248;BME280;57641;51.416;5.506;2023-03-03T15:02:34;102638.03;;;12.55;42.13
70248;BME280;57641;51.416;5.506;2023-03-03T15:05:19;102630.75;;;12.57;42.63
70248;BME280;57641;51.416;5.506;2023-03-03T15:07:49;102632.94;;;12.63;42.59
70248;BME280;57641;51.416;5.506;2023-03-03T15:10:44;102636.56;;;12.84;42.75
70248;BME280;57641;51.416;5.506;2023-03-03T15:16:09;102620.38;;;12.86;41.17
70248;BME280;57641;51.416;5.506;2023-03-03T15:21:34;102620.19;;;12.44;42.02
70248;BME280;57641;51.416;5.506;2023-03-03T15:24:06;102618.25;;;12.35;42.25
70248;BME280;57641;51.416;5.506;2023-03-03T15:29:32;102618.84;;;12.39;42.47
70248;BME280;57641;51.416;5.506;2023-03-03T15:32:14;102614.34;;;12.39;42.52
70248;BME280;57641;51.416;5.506;2023-03-03T15:45:49;102607.53;;;12.24;42.35
70248;BME280;57641;51.416;5.506;2023-03-03T15:57:13;102602.78;;;12.16;41.68
70248;BME280;57641;51.416;5.506;2023-03-03T15:59:58;102603.03;;;12.13;41.94
70248;BME280;57641;51.416;5.506;2023-03-03T16:05:39;102600.84;;;12.07;42.40
70248;BME280;57641;51.416;5.506;2023-03-03T16:08:24;102600.84;;;12.18;41.55
70248;BME280;57641;51.416;5.506;2023-03-03T16:11:11;102599.63;;;12.22;42.04
70248;BME280;57641;51.416;5.506;2023-03-03T16:16:53;102604.47;;;12.62;41.85
70248;BME280;57641;51.416;5.506;2023-03-03T16:19:34;102598.75;;;12.66;41.12
70248;BME280;57641;51.416;5.506;2023-03-03T16:25:15;102598.47;;;12.81;40.56
70248;BME280;57641;51.416;5.506;2023-03-03T16:27:58;102601.69;;;12.63;40.63
70248;BME280;57641;51.416;5.506;2023-03-03T16:30:31;102595.63;;;12.50;41.82
70248;BME280;57641;51.416;5.506;2023-03-03T16:33:36;102595.59;;;12.61;41.57
70248;BME280;57641;51.416;5.506;2023-03-03T16:36:03;102601.69;;;12.63;41.56
70248;BME280;57641;51.416;5.506;2023-03-03T16:38:51;102606.53;;;12.58;41.14
70248;BME280;57641;51.416;5.506;2023-03-03T16:41:42;102599.25;;;12.49;41.20
70248;BME280;57641;51.416;5.506;2023-03-03T16:46:42;102598.06;;;12.42;40.75
70248;BME280;57641;51.416;5.506;2023-03-03T16:49:30;102602.69;;;12.40;40.90
70248;BME280;57641;51.416;5.506;2023-03-03T16:52:12;102605.59;;;12.37;41.28
70248;BME280;57641;51.416;5.506;2023-03-03T16:54:50;102613.75;;;12.36;40.93
70248;BME280;57641;51.416;5.506;2023-03-03T17:02:54;102606.94;;;12.32;41.11
70248;BME280;57641;51.416;5.506;2023-03-03T17:05:41;102609.72;;;12.30;41.24